createdAt,value
2022-10-26T00:01:18.251Z,99.53
2022-10-26T00:03:47.503Z,99.24
2022-10-26T00:06:17.278Z,99.26
2022-10-26T00:08:47.253Z,99.17
2022-10-26T00:11:15.592Z,98.63
2022-10-26T00:13:43.742Z,98.29
2022-10-26T00:16:13.820Z,97.79
2022-10-26T00:18:42.021Z,97.53
2022-10-26T00:21:11.331Z,97.58
2022-10-26T00:23:39.304Z,97.69
2022-10-26T00:26:08.791Z,98.01
2022-10-26T00:28:36.655Z,97.77
2022-10-26T00:31:05.728Z,97.66
2022-10-26T00:33:33.771Z,97.76
2022-10-26T00:36:01.391Z,98.15
2022-10-26T00:38:29.114Z,97.83
2022-10-26T00:43:43.067Z,97.00
2022-10-26T00:46:15.880Z,97.76
2022-10-26T00:48:47.432Z,97.55
2022-10-26T00:51:21.725Z,97.02
2022-10-26T00:53:49.893Z,97.13
2022-10-26T00:56:18.427Z,97.44
2022-10-26T00:58:47.910Z,97.34
2022-10-26T01:01:15.909Z,97.62
2022-10-26T01:03:43.901Z,97.98
2022-10-26T01:06:12.906Z,98.09
2022-10-26T01:08:41.190Z,98.05
2022-10-26T01:11:08.886Z,98.16
2022-10-26T01:13:38.040Z,98.17
2022-10-26T01:16:21.795Z,99.02
2022-10-26T01:18:59.706Z,98.44
2022-10-26T01:21:46.020Z,98.01
2022-10-26T01:24:47.281Z,97.64
2022-10-26T01:27:25.977Z,97.39
2022-10-26T01:30:26.205Z,97.70
2022-10-26T01:33:10.628Z,97.67
2022-10-26T01:35:43.385Z,97.84
2022-10-26T01:38:15.925Z,97.83
2022-10-26T01:40:48.724Z,98.34
2022-10-26T01:43:17.349Z,98.07
2022-10-26T01:45:48.168Z,98.26
2022-10-26T01:48:19.989Z,98.00
2022-10-26T01:50:51.946Z,97.69
2022-10-26T01:53:20.591Z,97.57
2022-10-26T01:55:51.086Z,96.98
2022-10-26T01:58:50.217Z,96.63
2022-10-26T02:01:31.385Z,96.33
2022-10-26T02:04:10.790Z,96.48
2022-10-26T02:06:50.233Z,95.83
2022-10-26T02:09:25.861Z,96.03
2022-10-26T02:11:55.342Z,96.21
2022-10-26T02:14:30.399Z,96.25
2022-10-26T02:16:59.374Z,96.32
2022-10-26T02:19:34.840Z,95.71
2022-10-26T02:22:11.186Z,95.51
2022-10-26T02:24:40.715Z,95.76
2022-10-26T02:27:13.884Z,95.76
2022-10-26T02:29:43.082Z,95.10
2022-10-26T02:32:11.852Z,94.91
2022-10-26T02:34:46.212Z,95.30
2022-10-26T02:37:16.563Z,95.40
2022-10-26T02:39:46.505Z,94.89
2022-10-26T02:42:16.609Z,94.71
2022-10-26T02:44:49.374Z,94.92
2022-10-26T02:47:17.624Z,95.57
2022-10-26T02:49:46.636Z,95.68
2022-10-26T02:52:19.355Z,95.18
2022-10-26T02:54:54.119Z,95.03
2022-10-26T02:57:25.994Z,96.26
2022-10-26T02:59:54.954Z,96.16
2022-10-26T03:02:23.776Z,96.43
2022-10-26T03:04:53.776Z,95.86
2022-10-26T03:07:22.565Z,95.63
2022-10-26T03:09:50.312Z,95.76
2022-10-26T03:12:17.893Z,95.50
2022-10-26T03:14:45.456Z,96.22
2022-10-26T03:17:12.955Z,96.21
2022-10-26T03:19:40.604Z,96.11
2022-10-26T03:22:09.527Z,95.86
2022-10-26T03:24:37.158Z,95.57
2022-10-26T03:27:04.753Z,95.87
2022-10-26T03:29:32.316Z,95.56
2022-10-26T03:31:59.919Z,96.37
2022-10-26T03:34:27.516Z,96.18
2022-10-26T03:36:55.066Z,97.13
2022-10-26T03:39:24.053Z,97.30
2022-10-26T03:41:51.599Z,97.29
2022-10-26T03:44:19.174Z,97.09
2022-10-26T03:46:46.731Z,97.02
2022-10-26T03:49:14.379Z,97.68
2022-10-26T03:51:42.029Z,98.02
2022-10-26T03:54:10.190Z,97.88
2022-10-26T03:56:39.042Z,97.71
2022-10-26T03:59:06.605Z,97.76
2022-10-26T04:01:34.234Z,98.05
2022-10-26T04:04:01.905Z,98.21
2022-10-26T04:06:29.469Z,98.47
2022-10-26T04:09:01.810Z,98.27
2022-10-26T04:11:29.466Z,97.66
2022-10-26T04:13:59.599Z,97.57
2022-10-26T04:16:31.055Z,98.02
2022-10-26T04:19:01.057Z,98.45
2022-10-26T04:21:28.755Z,97.99
2022-10-26T04:23:56.297Z,98.94
2022-10-26T04:26:23.962Z,99.17
2022-10-26T04:28:51.604Z,99.15
2022-10-26T04:31:20.474Z,99.13
2022-10-26T04:33:48.054Z,99.37
2022-10-26T04:36:15.640Z,99.66
2022-10-26T04:38:43.276Z,99.47
2022-10-26T04:41:10.942Z,99.92
2022-10-26T04:43:38.513Z,100.00
2022-10-26T04:46:06.361Z,100.00
2022-10-26T04:48:35.288Z,100.00
2022-10-26T04:51:02.867Z,100.00
2022-10-26T04:53:30.415Z,100.00
2022-10-26T04:55:58.724Z,100.00
2022-10-26T04:58:26.286Z,100.00
2022-10-26T05:00:54.170Z,100.00
2022-10-26T05:03:21.734Z,100.00
2022-10-26T05:05:50.607Z,100.00
2022-10-26T05:08:18.181Z,99.97
2022-10-26T05:10:49.809Z,100.00
2022-10-26T05:13:17.823Z,100.00
2022-10-26T05:15:45.525Z,100.00
2022-10-26T05:18:13.169Z,100.00
2022-10-26T05:20:40.720Z,100.00
2022-10-26T05:23:13.836Z,100.00
2022-10-26T05:25:41.438Z,100.00
2022-10-26T05:28:13.233Z,100.00
2022-10-26T05:30:41.162Z,100.00
2022-10-26T05:33:10.841Z,100.00
2022-10-26T05:35:38.935Z,100.00
2022-10-26T05:38:11.618Z,100.00
2022-10-26T05:40:39.282Z,100.00
2022-10-26T05:43:07.127Z,100.00
2022-10-26T05:45:34.683Z,100.00
2022-10-26T05:48:03.145Z,100.00
2022-10-26T05:50:31.060Z,100.00
2022-10-26T05:52:58.683Z,100.00
2022-10-26T05:55:28.347Z,99.81
2022-10-26T05:57:56.320Z,98.76
2022-10-26T06:00:26.683Z,98.56
2022-10-26T06:03:08.453Z,98.31
2022-10-26T06:05:42.527Z,98.36
2022-10-26T06:08:11.540Z,98.69
2022-10-26T06:10:41.309Z,98.73
2022-10-26T06:13:09.387Z,98.33
2022-10-26T06:15:47.935Z,98.54
2022-10-26T06:18:24.687Z,98.60
2022-10-26T06:21:10.770Z,98.67
2022-10-26T06:23:48.466Z,98.51
2022-10-26T06:26:25.035Z,97.50
2022-10-26T06:29:02.625Z,97.12
2022-10-26T06:31:30.444Z,96.96
2022-10-26T06:34:00.399Z,97.04
2022-10-26T06:36:30.018Z,96.86
2022-10-26T06:39:03.333Z,96.63
2022-10-26T06:41:35.096Z,96.65
2022-10-26T06:44:03.691Z,96.48
2022-10-26T06:46:38.272Z,96.35
2022-10-26T06:49:19.664Z,95.86
2022-10-26T06:51:52.481Z,95.27
2022-10-26T06:54:25.003Z,95.42
2022-10-26T06:56:54.827Z,96.42
2022-10-26T06:59:37.655Z,96.77
2022-10-26T07:02:06.617Z,96.36
2022-10-26T07:04:34.544Z,95.69
2022-10-26T07:07:02.263Z,95.64
2022-10-26T07:09:30.042Z,95.22
2022-10-26T07:11:58.957Z,94.67
2022-10-26T07:14:26.664Z,94.47
2022-10-26T07:16:54.421Z,93.31
2022-10-26T07:19:21.943Z,92.91
2022-10-26T07:21:49.819Z,93.50
2022-10-26T07:24:17.966Z,93.56
2022-10-26T07:26:45.743Z,92.65
2022-10-26T07:29:16.289Z,92.32
2022-10-26T07:31:43.990Z,92.71
2022-10-26T07:34:11.596Z,92.37
2022-10-26T07:36:39.445Z,91.90
2022-10-26T07:39:07.455Z,92.46
2022-10-26T07:41:35.604Z,92.12
2022-10-26T07:44:03.261Z,91.47
2022-10-26T07:46:32.278Z,91.71
2022-10-26T07:48:59.994Z,91.62
2022-10-26T07:51:27.544Z,91.05
2022-10-26T07:53:55.145Z,91.18
2022-10-26T07:56:22.768Z,91.23
2022-10-26T07:58:53.095Z,92.29
2022-10-26T08:01:20.971Z,92.62
2022-10-26T08:03:53.316Z,92.27
2022-10-26T08:06:20.952Z,91.55
2022-10-26T08:08:51.738Z,90.46
2022-10-26T08:11:19.688Z,90.08
2022-10-26T08:13:47.424Z,90.27
2022-10-26T08:16:15.328Z,88.38
2022-10-26T08:18:43.152Z,88.50
2022-10-26T08:21:15.575Z,88.07
2022-10-26T08:23:49.054Z,87.74
2022-10-26T08:26:17.959Z,88.06
2022-10-26T08:28:51.692Z,87.35
2022-10-26T08:31:19.247Z,87.31
2022-10-26T08:33:47.835Z,88.38
2022-10-26T08:36:21.156Z,87.60
2022-10-26T08:38:49.495Z,85.17
2022-10-26T08:41:17.494Z,84.08
2022-10-26T08:43:50.857Z,82.41
2022-10-26T08:46:22.469Z,81.36
2022-10-26T08:48:55.549Z,79.92
2022-10-26T08:51:27.575Z,78.98
2022-10-26T08:54:04.524Z,77.72
2022-10-26T08:56:40.432Z,77.82
2022-10-26T08:59:15.278Z,76.44
2022-10-26T09:01:43.095Z,77.38
2022-10-26T09:04:13.559Z,77.27
2022-10-26T09:06:54.761Z,77.72
2022-10-26T09:09:29.838Z,76.99
2022-10-26T09:12:06.027Z,76.08
2022-10-26T09:14:43.783Z,75.85
2022-10-26T09:17:20.833Z,76.72
2022-10-26T09:20:13.522Z,77.13
2022-10-26T09:22:52.861Z,76.50
2022-10-26T09:25:22.496Z,76.74
2022-10-26T09:27:55.145Z,76.58
2022-10-26T09:30:23.723Z,77.34
2022-10-26T09:32:54.301Z,77.91
2022-10-26T09:35:26.210Z,78.46
2022-10-26T09:38:00.345Z,78.99
2022-10-26T09:40:36.957Z,78.02
2022-10-26T09:43:11.888Z,78.29
2022-10-26T09:45:42.646Z,78.07
2022-10-26T09:48:14.943Z,76.38
2022-10-26T09:50:46.565Z,76.66
2022-10-26T09:53:15.587Z,76.45
2022-10-26T09:55:46.253Z,76.61
2022-10-26T09:58:18.212Z,78.34
2022-10-26T10:00:47.331Z,78.26
2022-10-26T10:03:25.619Z,77.25
2022-10-26T10:05:54.336Z,77.81
2022-10-26T10:08:25.074Z,77.05
2022-10-26T10:11:02.245Z,77.55
2022-10-26T10:13:32.192Z,78.40
2022-10-26T10:16:11.370Z,77.73
2022-10-26T10:18:40.495Z,78.15
2022-10-26T10:21:10.182Z,78.49
2022-10-26T10:23:49.744Z,79.56
2022-10-26T10:26:17.395Z,79.24
2022-10-26T10:28:57.912Z,78.58
2022-10-26T10:31:30.834Z,78.42
2022-10-26T10:33:58.833Z,77.51
2022-10-26T10:36:29.714Z,77.78
2022-10-26T10:38:59.207Z,78.95
2022-10-26T10:41:30.362Z,77.26
2022-10-26T10:44:09.048Z,76.14
2022-10-26T10:46:38.304Z,75.02
2022-10-26T10:49:07.595Z,75.07
2022-10-26T10:51:40.928Z,75.64
2022-10-26T10:54:24.038Z,75.61
2022-10-26T10:56:54.405Z,74.44
2022-10-26T10:59:36.043Z,74.70
2022-10-26T11:02:32.378Z,74.54
2022-10-26T11:05:14.767Z,74.01
2022-10-26T11:07:49.113Z,75.08
2022-10-26T11:10:21.706Z,74.71
2022-10-26T11:12:53.982Z,74.54
2022-10-26T11:15:25.160Z,74.29
2022-10-26T11:18:01.485Z,74.84
2022-10-26T11:20:31.915Z,73.82
2022-10-26T11:25:45.639Z,74.63
2022-10-26T11:28:17.677Z,75.72
2022-10-26T11:30:50.170Z,76.32
2022-10-26T11:33:23.875Z,75.42
2022-10-26T11:35:57.570Z,75.38
2022-10-26T11:38:45.529Z,74.27
2022-10-26T11:41:23.026Z,72.62
2022-10-26T11:43:54.710Z,73.17
2022-10-26T11:46:28.718Z,72.94
2022-10-26T11:49:01.801Z,74.24
2022-10-26T11:51:39.504Z,74.91
2022-10-26T11:54:13.762Z,74.62
2022-10-26T11:56:47.955Z,73.81
2022-10-26T11:59:20.250Z,73.56
2022-10-26T12:01:51.120Z,74.00
2022-10-26T12:04:22.070Z,72.71
2022-10-26T12:06:52.508Z,72.37
2022-10-26T12:09:24.866Z,72.64
2022-10-26T12:12:01.982Z,72.46
2022-10-26T12:14:37.699Z,72.41
2022-10-26T12:17:12.042Z,71.67
2022-10-26T12:19:47.037Z,71.90
2022-10-26T12:22:17.425Z,73.28
2022-10-26T12:24:46.958Z,73.36
2022-10-26T12:27:54.556Z,72.53
2022-10-26T12:30:31.250Z,73.14
2022-10-26T12:33:01.123Z,73.20
2022-10-26T12:35:45.123Z,74.73
2022-10-26T12:39:00.038Z,74.15
2022-10-26T12:41:28.720Z,75.20
2022-10-26T12:43:59.183Z,74.07
2022-10-26T12:46:45.258Z,75.48
2022-10-26T12:49:58.116Z,76.16
2022-10-26T12:52:36.198Z,76.46
2022-10-26T12:55:54.771Z,76.73
2022-10-26T12:58:47.559Z,75.87
2022-10-26T13:01:54.708Z,75.60
2022-10-26T13:04:53.016Z,75.48
2022-10-26T13:07:23.147Z,76.24
2022-10-26T13:10:01.767Z,76.54
2022-10-26T13:12:37.431Z,76.10
2022-10-26T13:15:07.537Z,75.35
2022-10-26T13:17:37.562Z,75.12
2022-10-26T13:20:07.361Z,74.54
2022-10-26T13:22:45.598Z,74.46
2022-10-26T13:25:22.684Z,73.38
2022-10-26T13:28:00.429Z,73.84
2022-10-26T13:30:47.452Z,73.31
2022-10-26T13:33:22.405Z,73.37
2022-10-26T13:35:53.485Z,73.37
2022-10-26T13:38:24.223Z,73.55
2022-10-26T13:40:59.093Z,73.92
2022-10-26T13:43:28.553Z,72.80
2022-10-26T13:45:59.797Z,73.11
2022-10-26T13:48:37.228Z,73.60
2022-10-26T13:51:12.190Z,73.94
2022-10-26T13:53:44.396Z,74.50
2022-10-26T13:56:23.274Z,74.35
2022-10-26T13:58:55.715Z,74.68
2022-10-26T14:01:28.561Z,73.90
2022-10-26T14:03:57.944Z,75.21
2022-10-26T14:06:29.969Z,74.72
2022-10-26T14:09:01.540Z,74.92
2022-10-26T14:11:37.050Z,74.44
2022-10-26T14:14:05.421Z,74.99
2022-10-26T14:16:35.231Z,75.46
2022-10-26T14:19:04.507Z,75.87
2022-10-26T14:21:32.079Z,75.88
2022-10-26T14:24:04.089Z,76.88
2022-10-26T14:26:40.389Z,76.95
2022-10-26T14:29:17.648Z,77.50
2022-10-26T14:31:45.350Z,77.15
2022-10-26T14:34:14.589Z,77.79
2022-10-26T14:36:47.556Z,77.36
2022-10-26T14:39:22.667Z,77.54
2022-10-26T14:41:51.561Z,76.96
2022-10-26T14:44:22.217Z,77.85
2022-10-26T14:46:50.380Z,78.03
2022-10-26T14:49:22.826Z,77.86
2022-10-26T14:51:56.973Z,77.34
2022-10-26T14:54:29.201Z,77.78
2022-10-26T14:56:57.449Z,77.16
2022-10-26T14:59:27.567Z,77.84
2022-10-26T15:01:56.960Z,78.24
2022-10-26T15:04:34.919Z,78.59
2022-10-26T15:07:08.694Z,78.66
2022-10-26T15:09:42.899Z,79.16
2022-10-26T15:12:21.259Z,79.47
2022-10-26T15:14:49.519Z,79.92
2022-10-26T15:17:23.278Z,80.21
2022-10-26T15:19:53.606Z,80.37
2022-10-26T15:22:29.543Z,80.63
2022-10-26T15:25:03.035Z,81.08
2022-10-26T15:27:31.064Z,81.45
2022-10-26T15:30:13.442Z,81.67
2022-10-26T15:32:42.047Z,81.89
2022-10-26T15:35:37.909Z,82.16
2022-10-26T15:38:05.842Z,82.61
2022-10-26T15:40:33.624Z,82.33
2022-10-26T15:43:01.915Z,83.21
2022-10-26T15:45:32.820Z,82.99
2022-10-26T15:48:16.796Z,83.22
2022-10-26T15:50:45.850Z,83.92
2022-10-26T15:53:19.258Z,83.82
2022-10-26T15:55:47.308Z,84.56
2022-10-26T15:58:16.323Z,85.43
2022-10-26T16:00:44.148Z,86.06
2022-10-26T16:03:15.172Z,85.96
2022-10-26T16:05:42.886Z,86.58
2022-10-26T16:08:17.771Z,87.26
2022-10-26T16:10:46.963Z,87.80
2022-10-26T16:13:15.305Z,88.71
2022-10-26T16:15:44.148Z,88.88
2022-10-26T16:18:11.708Z,89.60
2022-10-26T16:20:39.343Z,89.96
2022-10-26T16:23:07.093Z,89.61
2022-10-26T16:25:50.926Z,89.94
2022-10-26T16:28:19.523Z,90.11
2022-10-26T16:30:47.321Z,90.37
2022-10-26T16:33:15.466Z,90.64
2022-10-26T16:35:43.231Z,90.83
2022-10-26T16:38:10.856Z,91.01
2022-10-26T16:40:42.436Z,91.37
2022-10-26T16:43:10.104Z,91.97
2022-10-26T16:45:40.820Z,91.61
2022-10-26T16:48:14.260Z,91.62
2022-10-26T16:50:41.931Z,91.89
2022-10-26T16:53:09.527Z,91.78
2022-10-26T16:55:37.320Z,91.90
2022-10-26T16:58:06.273Z,91.81
2022-10-26T17:00:36.233Z,91.93
2022-10-26T17:03:04.054Z,92.15
2022-10-26T17:05:31.915Z,92.30
2022-10-26T17:07:59.510Z,92.65
2022-10-26T17:10:27.996Z,92.94
2022-10-26T17:12:56.705Z,93.18
2022-10-26T17:15:28.872Z,93.40
2022-10-26T17:17:57.010Z,93.94
2022-10-26T17:20:24.607Z,94.38
2022-10-26T17:22:52.472Z,94.65
2022-10-26T17:25:20.474Z,95.19
2022-10-26T17:27:48.096Z,95.38
2022-10-26T17:30:15.830Z,95.86
2022-10-26T17:32:45.034Z,96.18
2022-10-26T17:35:13.369Z,96.37
2022-10-26T17:37:41.074Z,97.00
2022-10-26T17:40:09.735Z,97.21
2022-10-26T17:42:37.322Z,97.31
2022-10-26T17:45:05.649Z,97.63
2022-10-26T17:47:33.354Z,98.78
2022-10-26T17:50:03.403Z,98.85
2022-10-26T17:52:30.992Z,99.00
2022-10-26T17:55:01.787Z,99.29
2022-10-26T17:57:30.592Z,99.45
2022-10-26T17:59:58.246Z,99.61
2022-10-26T18:02:26.272Z,99.33
2022-10-26T18:04:54.028Z,99.95
2022-10-26T18:07:23.297Z,99.69
2022-10-26T18:09:50.896Z,100.00
2022-10-26T18:12:18.513Z,100.00
2022-10-26T18:14:46.347Z,100.00
2022-10-26T18:17:13.960Z,100.00
2022-10-26T18:19:41.595Z,100.00
2022-10-26T18:22:09.212Z,100.00
2022-10-26T18:24:38.279Z,100.00
2022-10-26T18:27:05.998Z,100.00
2022-10-26T18:29:36.152Z,100.00
2022-10-26T18:32:06.544Z,100.00
2022-10-26T18:34:34.146Z,100.00
2022-10-26T18:37:01.771Z,100.00
2022-10-26T18:39:29.629Z,100.00
2022-10-26T18:41:59.217Z,100.00
2022-10-26T18:44:26.794Z,100.00
2022-10-26T18:46:54.572Z,100.00
2022-10-26T18:49:22.190Z,100.00
2022-10-26T18:51:49.832Z,100.00
2022-10-26T18:54:17.428Z,100.00
2022-10-26T18:56:45.068Z,100.00
2022-10-26T18:59:14.004Z,100.00
2022-10-26T19:01:42.439Z,100.00
2022-10-26T19:04:11.290Z,100.00
2022-10-26T19:06:40.539Z,100.00
2022-10-26T19:09:10.177Z,100.00
2022-10-26T19:11:38.657Z,100.00
2022-10-26T19:14:07.541Z,100.00
2022-10-26T19:16:46.732Z,100.00
2022-10-26T19:19:15.482Z,100.00
2022-10-26T19:21:43.262Z,100.00
2022-10-26T19:24:14.381Z,100.00
2022-10-26T19:26:43.937Z,100.00
2022-10-26T19:29:13.778Z,100.00
2022-10-26T19:31:43.994Z,100.00
2022-10-26T19:34:12.555Z,100.00
2022-10-26T19:36:45.031Z,100.00
2022-10-26T19:39:13.565Z,100.00
2022-10-26T19:41:41.632Z,100.00
2022-10-26T19:44:12.219Z,100.00
2022-10-26T19:46:40.009Z,100.00
2022-10-26T19:49:09.086Z,100.00
2022-10-26T19:51:36.980Z,100.00
2022-10-26T19:54:07.102Z,100.00
2022-10-26T19:56:36.187Z,100.00
2022-10-26T19:59:04.571Z,100.00
2022-10-26T20:01:32.434Z,100.00
2022-10-26T20:04:02.158Z,100.00
2022-10-26T20:06:31.511Z,100.00
2022-10-26T20:08:59.725Z,100.00
2022-10-26T20:11:27.412Z,100.00
2022-10-26T20:13:55.790Z,100.00
2022-10-26T20:16:23.393Z,100.00
2022-10-26T20:18:51.090Z,100.00
2022-10-26T20:21:18.898Z,100.00
2022-10-26T20:23:47.731Z,100.00
2022-10-26T20:26:18.795Z,100.00
2022-10-26T20:28:50.884Z,100.00
2022-10-26T20:31:18.573Z,100.00
2022-10-26T20:33:46.134Z,100.00
2022-10-26T20:36:13.734Z,100.00
2022-10-26T20:38:41.872Z,100.00
2022-10-26T20:41:12.954Z,100.00
2022-10-26T20:43:44.338Z,100.00
2022-10-26T20:46:13.768Z,100.00
2022-10-26T20:48:42.127Z,100.00
2022-10-26T20:51:17.245Z,100.00
2022-10-26T20:53:52.393Z,100.00
2022-10-26T20:56:24.897Z,100.00
2022-10-26T20:58:54.628Z,100.00
2022-10-26T21:01:25.546Z,100.00
2022-10-26T21:03:53.467Z,100.00
2022-10-26T21:06:21.838Z,100.00
2022-10-26T21:08:49.768Z,100.00
2022-10-26T21:11:17.798Z,100.00
2022-10-26T21:13:48.667Z,100.00
2022-10-26T21:16:16.809Z,100.00
2022-10-26T21:18:44.461Z,100.00
2022-10-26T21:21:12.305Z,100.00
2022-10-26T21:23:41.513Z,100.00
2022-10-26T21:26:09.915Z,100.00
2022-10-26T21:28:39.047Z,100.00
2022-10-26T21:31:09.825Z,100.00
2022-10-26T21:33:38.223Z,100.00
2022-10-26T21:36:08.462Z,100.00
2022-10-26T21:38:36.348Z,100.00
2022-10-26T21:41:04.731Z,100.00
2022-10-26T21:43:32.641Z,100.00
2022-10-26T21:46:03.445Z,100.00
2022-10-26T21:48:34.229Z,100.00
2022-10-26T21:51:02.419Z,100.00
2022-10-26T21:53:30.457Z,100.00
2022-10-26T21:56:02.027Z,100.00
2022-10-26T21:58:30.548Z,100.00
2022-10-26T22:01:05.861Z,100.00
2022-10-26T22:03:35.362Z,100.00
2022-10-26T22:06:06.082Z,100.00
2022-10-26T22:08:34.098Z,100.00
2022-10-26T22:11:07.813Z,100.00
2022-10-26T22:13:36.177Z,100.00
2022-10-26T22:16:05.277Z,100.00
2022-10-26T22:18:36.688Z,100.00
2022-10-26T22:21:05.425Z,100.00
2022-10-26T22:23:34.983Z,100.00
2022-10-26T22:26:03.883Z,100.00
2022-10-26T22:28:32.967Z,100.00
2022-10-26T22:31:02.907Z,100.00
2022-10-26T22:33:30.549Z,100.00
2022-10-26T22:36:04.673Z,100.00
2022-10-26T22:38:32.289Z,100.00
2022-10-26T22:41:00.100Z,100.00
2022-10-26T22:43:29.224Z,100.00
2022-10-26T22:46:00.979Z,100.00
2022-10-26T22:48:28.823Z,100.00
2022-10-26T22:50:56.621Z,100.00
2022-10-26T22:53:25.998Z,100.00
2022-10-26T22:55:53.685Z,100.00
2022-10-26T22:58:21.219Z,100.00
2022-10-26T23:00:49.747Z,100.00
2022-10-26T23:03:17.246Z,100.00
2022-10-26T23:05:48.087Z,100.00
2022-10-26T23:08:15.698Z,100.00
2022-10-26T23:10:44.616Z,100.00
2022-10-26T23:13:12.144Z,100.00
2022-10-26T23:15:39.751Z,100.00
2022-10-26T23:18:07.453Z,100.00
2022-10-26T23:20:35.319Z,100.00
2022-10-26T23:23:03.031Z,100.00
2022-10-26T23:25:30.590Z,100.00
2022-10-26T23:27:59.481Z,100.00
2022-10-26T23:30:27.222Z,100.00
2022-10-26T23:32:56.125Z,100.00
2022-10-26T23:35:23.883Z,100.00
2022-10-26T23:37:51.467Z,100.00
2022-10-26T23:40:19.220Z,100.00
2022-10-26T23:42:46.758Z,100.00
2022-10-26T23:45:16.021Z,100.00
2022-10-26T23:47:43.738Z,100.00
2022-10-26T23:50:11.425Z,100.00
2022-10-26T23:52:39.129Z,100.00
2022-10-26T23:55:07.568Z,100.00
2022-10-26T23:57:35.141Z,100.00
